createdAt,value
2023-02-11T00:00:16.159Z,12.71
2023-02-11T00:02:58.263Z,12.75
2023-02-11T00:05:40.475Z,12.79
2023-02-11T00:08:29.140Z,12.76
2023-02-11T00:11:11.430Z,12.77
2023-02-11T00:14:00.562Z,12.73
2023-02-11T00:16:42.537Z,12.74
2023-02-11T00:19:31.155Z,12.85
2023-02-11T00:22:20.176Z,12.86
2023-02-11T00:25:02.513Z,12.95
2023-02-11T00:27:52.221Z,12.89
2023-02-11T00:30:48.132Z,12.88
2023-02-11T00:33:37.188Z,12.86
2023-02-11T00:36:25.425Z,12.85
2023-02-11T00:39:16.143Z,12.79
2023-02-11T00:41:58.401Z,12.74
2023-02-11T00:44:47.207Z,12.78
2023-02-11T00:47:29.370Z,12.85
2023-02-11T00:50:18.190Z,12.87
2023-02-11T00:53:00.674Z,12.80
2023-02-11T00:55:49.350Z,12.76
2023-02-11T00:58:33.538Z,12.76
2023-02-11T01:01:22.197Z,12.72
2023-02-11T01:04:04.424Z,12.78
2023-02-11T01:06:53.193Z,12.76
2023-02-11T01:09:42.135Z,12.77
2023-02-11T01:12:33.980Z,12.79
2023-02-11T01:15:28.143Z,12.81
2023-02-11T01:18:17.166Z,12.92
2023-02-11T01:21:01.486Z,12.90
2023-02-11T01:23:50.158Z,12.90
2023-02-11T01:26:32.442Z,12.89
2023-02-11T01:29:21.109Z,12.90
2023-02-11T01:32:10.499Z,12.92
2023-02-11T01:34:53.258Z,12.78
2023-02-11T01:37:42.940Z,12.93
2023-02-11T01:40:27.154Z,12.88
2023-02-11T01:43:19.381Z,12.86
2023-02-11T01:46:11.243Z,12.87
2023-02-11T01:49:19.514Z,12.83
2023-02-11T01:52:09.258Z,12.85
2023-02-11T01:55:23.372Z,12.90
2023-02-11T01:58:09.118Z,12.99
2023-02-11T02:00:58.383Z,13.03
2023-02-11T02:03:44.175Z,13.05
2023-02-11T02:06:55.396Z,12.95
2023-02-11T02:09:42.217Z,12.93
2023-02-11T02:12:30.398Z,12.90
2023-02-11T02:15:34.133Z,12.95
2023-02-11T02:18:31.136Z,12.98
2023-02-11T02:21:39.412Z,13.15
2023-02-11T02:24:41.447Z,13.04
2023-02-11T02:27:38.168Z,13.13
2023-02-11T02:30:33.191Z,13.26
2023-02-11T02:33:36.454Z,13.23
2023-02-11T02:36:46.266Z,13.35
2023-02-11T02:39:34.384Z,13.48
2023-02-11T02:42:24.211Z,13.62
2023-02-11T02:45:06.375Z,13.74
2023-02-11T02:47:55.113Z,13.75
2023-02-11T02:50:43.426Z,13.89
2023-02-11T02:54:03.171Z,14.02
2023-02-11T02:57:02.468Z,14.39
2023-02-11T03:00:28.155Z,15.00
2023-02-11T03:03:18.431Z,15.43
2023-02-11T03:06:30.118Z,15.58
2023-02-11T03:09:28.520Z,16.09
2023-02-11T03:12:18.179Z,16.26
2023-02-11T03:15:01.498Z,16.65
2023-02-11T03:17:54.139Z,16.65
2023-02-11T03:20:45.136Z,16.99
2023-02-11T03:23:48.160Z,17.25
2023-02-11T03:26:39.389Z,17.48
2023-02-11T03:29:45.139Z,17.90
2023-02-11T03:32:47.022Z,18.24
2023-02-11T03:35:48.464Z,18.51
2023-02-11T03:38:37.400Z,18.58
2023-02-11T03:41:31.127Z,18.84
2023-02-11T03:44:15.363Z,19.13
2023-02-11T03:47:04.065Z,19.29
2023-02-11T03:49:49.430Z,19.42
2023-02-11T03:52:39.103Z,19.71
2023-02-11T03:55:26.980Z,19.80
2023-02-11T03:58:16.080Z,20.02
2023-02-11T04:00:58.511Z,20.39
2023-02-11T04:03:47.379Z,20.34
2023-02-11T04:06:29.488Z,20.51
2023-02-11T04:09:18.125Z,20.12
2023-02-11T04:12:00.434Z,20.41
2023-02-11T04:14:49.160Z,21.01
2023-02-11T04:17:38.168Z,20.63
2023-02-11T04:20:27.136Z,21.12
2023-02-11T04:23:09.363Z,21.20
2023-02-11T04:25:59.078Z,21.34
2023-02-11T04:28:48.120Z,21.75
2023-02-11T04:31:44.159Z,21.87
2023-02-11T04:34:33.125Z,22.18
2023-02-11T04:37:15.478Z,22.01
2023-02-11T04:40:04.121Z,22.29
2023-02-11T04:42:46.398Z,22.54
2023-02-11T04:45:35.483Z,22.34
2023-02-11T04:48:17.444Z,22.58
2023-02-11T04:51:06.161Z,22.71
2023-02-11T04:53:49.488Z,22.56
2023-02-11T04:56:38.068Z,22.80
2023-02-11T04:59:20.445Z,23.12
2023-02-11T05:02:09.166Z,23.35
2023-02-11T05:04:51.475Z,23.23
2023-02-11T05:07:40.087Z,23.14
2023-02-11T05:10:22.401Z,23.22
2023-02-11T05:13:11.232Z,23.48
2023-02-11T05:15:53.548Z,23.82
2023-02-11T05:18:42.154Z,23.45
2023-02-11T05:21:27.478Z,23.20
2023-02-11T05:24:16.101Z,23.43
2023-02-11T05:27:05.137Z,23.89
2023-02-11T05:29:48.374Z,23.60
2023-02-11T05:32:37.223Z,23.50
2023-02-11T05:35:26.400Z,23.56
2023-02-11T05:38:08.085Z,23.33
2023-02-11T05:40:50.289Z,23.31
2023-02-11T05:43:39.136Z,23.50
2023-02-11T05:46:21.470Z,23.68
2023-02-11T05:49:10.058Z,23.36
2023-02-11T05:51:52.408Z,23.86
2023-02-11T05:54:41.501Z,23.83
2023-02-11T05:57:29.446Z,24.03
2023-02-11T06:00:13.119Z,24.13
2023-02-11T06:03:02.025Z,24.09
2023-02-11T06:05:51.351Z,24.50
2023-02-11T06:08:39.524Z,24.24
2023-02-11T06:11:24.203Z,24.13
2023-02-11T06:14:12.459Z,23.56
2023-02-11T06:16:55.106Z,23.55
2023-02-11T06:19:43.404Z,23.81
2023-02-11T06:22:26.104Z,23.93
2023-02-11T06:25:15.584Z,23.67
2023-02-11T06:27:58.181Z,23.22
2023-02-11T06:30:54.173Z,23.37
2023-02-11T06:33:43.398Z,23.33
2023-02-11T06:36:29.176Z,23.71
2023-02-11T06:39:20.841Z,23.48
2023-02-11T06:42:05.368Z,23.51
2023-02-11T06:44:56.558Z,23.55
2023-02-11T06:47:38.071Z,23.54
2023-02-11T06:50:27.522Z,23.45
2023-02-11T06:53:10.166Z,23.32
2023-02-11T06:55:58.449Z,23.32
2023-02-11T06:58:41.489Z,23.30
2023-02-11T07:01:31.522Z,23.41
2023-02-11T07:04:14.167Z,23.54
2023-02-11T07:06:56.480Z,23.41
2023-02-11T07:09:45.232Z,23.41
2023-02-11T07:12:33.511Z,23.42
2023-02-11T07:15:16.137Z,23.55
2023-02-11T07:18:05.444Z,23.50
2023-02-11T07:20:48.115Z,23.51
2023-02-11T07:23:30.347Z,23.55
2023-02-11T07:26:24.184Z,23.52
2023-02-11T07:29:13.639Z,23.48
2023-02-11T07:32:02.136Z,23.43
2023-02-11T07:34:44.532Z,23.60
2023-02-11T07:37:33.163Z,23.64
2023-02-11T07:40:16.413Z,23.70
2023-02-11T07:43:05.163Z,23.51
2023-02-11T07:45:47.318Z,23.58
2023-02-11T07:48:36.177Z,23.59
2023-02-11T07:51:22.450Z,23.39
2023-02-11T07:54:11.117Z,23.51
2023-02-11T07:56:53.481Z,23.43
2023-02-11T07:59:42.109Z,23.36
2023-02-11T08:02:24.591Z,23.45
2023-02-11T08:05:13.164Z,23.44
2023-02-11T08:07:58.400Z,23.41
2023-02-11T08:10:47.172Z,23.47
2023-02-11T08:13:29.401Z,23.33
2023-02-11T08:16:18.173Z,23.45
2023-02-11T08:19:02.658Z,23.31
2023-02-11T08:21:52.178Z,23.41
2023-02-11T08:24:34.346Z,23.45
2023-02-11T08:27:23.151Z,23.34
2023-02-11T08:30:05.458Z,23.40
2023-02-11T08:32:54.129Z,23.23
2023-02-11T08:35:36.471Z,23.24
2023-02-11T08:38:25.123Z,23.22
2023-02-11T08:41:09.000Z,23.20
2023-02-11T08:43:58.260Z,23.24
2023-02-11T08:46:40.479Z,23.22
2023-02-11T08:49:30.118Z,23.06
2023-02-11T08:52:12.396Z,23.16
2023-02-11T08:55:01.173Z,23.20
2023-02-11T08:57:43.448Z,23.04
2023-02-11T09:00:32.154Z,23.11
2023-02-11T09:03:14.375Z,23.07
2023-02-11T09:06:03.127Z,23.02
2023-02-11T09:08:51.487Z,22.92
2023-02-11T09:11:43.131Z,22.88
2023-02-11T09:14:30.487Z,22.82
2023-02-11T09:17:19.140Z,22.91
2023-02-11T09:20:01.329Z,22.76
2023-02-11T09:22:50.159Z,22.86
2023-02-11T09:25:33.441Z,22.85
2023-02-11T09:28:22.486Z,22.79
2023-02-11T09:31:04.500Z,22.70
2023-02-11T09:33:58.107Z,22.56
2023-02-11T09:36:43.391Z,22.55
2023-02-11T09:39:34.232Z,22.43
2023-02-11T09:43:03.090Z,22.47
2023-02-11T09:46:04.154Z,22.46
2023-02-11T09:48:50.317Z,22.37
2023-02-11T09:51:50.150Z,22.25
2023-02-11T09:55:05.391Z,22.26
2023-02-11T09:57:53.361Z,22.22
2023-02-11T10:00:46.024Z,22.27
2023-02-11T10:04:07.341Z,22.19
2023-02-11T10:06:50.148Z,22.12
2023-02-11T10:09:41.431Z,22.14
2023-02-11T10:12:59.220Z,22.06
2023-02-11T10:16:05.937Z,22.00
2023-02-11T10:19:17.154Z,22.00
2023-02-11T10:22:33.151Z,21.88
2023-02-11T10:25:35.446Z,21.87
2023-02-11T10:28:30.208Z,21.83
2023-02-11T10:31:19.727Z,21.77
2023-02-11T10:34:14.519Z,21.64
2023-02-11T10:36:56.381Z,21.64
2023-02-11T10:39:47.141Z,21.63
2023-02-11T10:42:29.405Z,21.50
2023-02-11T10:45:32.085Z,21.47
2023-02-11T10:48:35.819Z,21.36
2023-02-11T10:51:28.127Z,21.23
2023-02-11T10:54:20.257Z,21.23
2023-02-11T10:57:09.080Z,21.18
2023-02-11T10:59:51.500Z,21.15
2023-02-11T11:02:44.043Z,21.04
2023-02-11T11:05:31.510Z,20.98
2023-02-11T11:08:21.218Z,20.92
2023-02-11T11:11:11.384Z,20.80
2023-02-11T11:14:04.115Z,20.79
2023-02-11T11:16:46.318Z,20.67
2023-02-11T11:19:35.164Z,20.66
2023-02-11T11:22:30.457Z,20.63
2023-02-11T11:25:35.037Z,20.57
2023-02-11T11:28:31.414Z,20.46
2023-02-11T11:31:42.264Z,20.40
2023-02-11T11:34:40.825Z,20.30
2023-02-11T11:37:36.417Z,20.32
2023-02-11T11:40:21.872Z,20.25
2023-02-11T11:43:23.213Z,20.10
2023-02-11T11:46:08.820Z,20.02
2023-02-11T11:49:00.120Z,20.06
2023-02-11T11:51:44.500Z,20.09
2023-02-11T11:54:36.113Z,19.94
2023-02-11T11:57:26.420Z,19.92
2023-02-11T12:00:43.119Z,19.82
2023-02-11T12:03:43.447Z,19.77
2023-02-11T12:06:59.111Z,19.63
2023-02-11T12:09:44.313Z,19.65
2023-02-11T12:12:40.082Z,19.55
2023-02-11T12:15:44.432Z,19.54
2023-02-11T12:18:51.084Z,19.39
2023-02-11T12:21:39.582Z,19.33
2023-02-11T12:24:37.009Z,19.27
2023-02-11T12:27:52.997Z,19.20
2023-02-11T12:31:00.089Z,19.18
2023-02-11T12:34:32.031Z,19.14
2023-02-11T12:37:22.988Z,19.07
2023-02-11T12:40:29.047Z,19.01
2023-02-11T12:43:35.391Z,18.83
2023-02-11T12:46:47.059Z,18.89
2023-02-11T12:49:42.360Z,18.79
2023-02-11T12:52:53.432Z,18.63
2023-02-11T12:55:51.403Z,18.61
2023-02-11T12:58:44.899Z,18.62
2023-02-11T13:01:39.493Z,18.47
2023-02-11T13:04:29.108Z,18.45
2023-02-11T13:07:28.100Z,18.30
2023-02-11T13:10:31.007Z,18.26
2023-02-11T13:13:32.133Z,18.17
2023-02-11T13:16:35.635Z,18.15
2023-02-11T13:19:44.100Z,18.04
2023-02-11T13:22:58.251Z,17.91
2023-02-11T13:26:03.117Z,17.88
2023-02-11T13:29:10.073Z,17.81
2023-02-11T13:32:24.926Z,17.79
2023-02-11T13:35:44.006Z,17.67
2023-02-11T13:38:33.113Z,17.49
2023-02-11T13:41:24.562Z,17.48
2023-02-11T13:44:17.172Z,17.38
2023-02-11T13:47:12.603Z,17.32
2023-02-11T13:50:01.128Z,17.22
2023-02-11T13:52:50.418Z,17.18
2023-02-11T13:55:35.383Z,17.11
2023-02-11T13:58:27.553Z,17.08
2023-02-11T14:01:10.118Z,17.02
2023-02-11T14:04:39.098Z,16.86
2023-02-11T14:08:02.079Z,16.77
2023-02-11T14:10:51.551Z,16.64
2023-02-11T14:13:42.112Z,16.61
2023-02-11T14:16:38.362Z,16.58
2023-02-11T14:19:39.063Z,16.56
2023-02-11T14:22:48.511Z,16.47
2023-02-11T14:25:35.184Z,16.34
2023-02-11T14:28:35.862Z,16.34
2023-02-11T14:31:29.256Z,16.33
2023-02-11T14:34:59.013Z,16.18
2023-02-11T14:38:06.482Z,16.22
2023-02-11T14:41:03.056Z,16.11
2023-02-11T14:43:49.712Z,16.05
2023-02-11T14:46:41.053Z,16.02
2023-02-11T14:49:34.337Z,15.94
2023-02-11T14:52:32.194Z,15.93
2023-02-11T14:55:39.052Z,15.81
2023-02-11T14:58:32.351Z,15.79
2023-02-11T15:01:39.528Z,15.77
2023-02-11T15:04:38.074Z,15.73
2023-02-11T15:07:27.484Z,15.70
2023-02-11T15:10:11.115Z,15.64
2023-02-11T15:13:00.458Z,15.65
2023-02-11T15:15:45.165Z,15.59
2023-02-11T15:18:41.690Z,15.53
2023-02-11T15:21:36.092Z,15.47
2023-02-11T15:24:42.084Z,15.48
2023-02-11T15:27:30.462Z,15.45
2023-02-11T15:30:29.167Z,15.35
2023-02-11T15:33:33.786Z,15.36
2023-02-11T15:36:20.140Z,15.35
2023-02-11T15:39:39.474Z,15.25
2023-02-11T15:42:52.781Z,15.14
2023-02-11T15:45:49.415Z,15.01
2023-02-11T15:48:46.169Z,15.08
2023-02-11T15:51:46.467Z,15.05
2023-02-11T15:54:32.076Z,15.06
2023-02-11T15:57:21.339Z,15.03
2023-02-11T16:00:04.096Z,14.94
2023-02-11T16:02:58.149Z,14.92
2023-02-11T16:05:46.334Z,14.95
2023-02-11T16:08:38.365Z,14.94
2023-02-11T16:11:42.301Z,14.92
2023-02-11T16:14:47.043Z,14.90
2023-02-11T16:17:37.521Z,14.80
2023-02-11T16:20:28.155Z,14.77
2023-02-11T16:23:12.468Z,14.69
2023-02-11T16:26:29.154Z,14.65
2023-02-11T16:29:23.496Z,14.61
2023-02-11T16:32:34.040Z,14.56
2023-02-11T16:35:22.318Z,14.51
2023-02-11T16:38:05.101Z,14.53
2023-02-11T16:40:54.449Z,14.48
2023-02-11T16:43:37.158Z,14.41
2023-02-11T16:46:28.485Z,14.39
2023-02-11T16:49:33.027Z,14.34
2023-02-11T16:52:24.382Z,14.30
2023-02-11T16:55:08.741Z,14.33
2023-02-11T16:57:59.505Z,14.28
2023-02-11T17:00:42.083Z,14.26
2023-02-11T17:03:38.649Z,14.24
2023-02-11T17:06:22.179Z,14.34
2023-02-11T17:09:10.440Z,14.27
2023-02-11T17:11:53.081Z,14.20
2023-02-11T17:14:42.518Z,14.18
2023-02-11T17:17:25.048Z,14.18
2023-02-11T17:20:14.744Z,14.15
2023-02-11T17:22:58.048Z,14.19
2023-02-11T17:25:47.339Z,14.15
2023-02-11T17:28:30.084Z,14.09
2023-02-11T17:31:19.479Z,14.05
2023-02-11T17:34:14.044Z,14.01
2023-02-11T17:37:08.679Z,14.02
2023-02-11T17:39:51.967Z,13.97
2023-02-11T17:42:40.773Z,13.91
2023-02-11T17:45:24.120Z,13.86
2023-02-11T17:48:13.005Z,13.73
2023-02-11T17:51:02.225Z,13.67
2023-02-11T17:53:51.432Z,13.66
2023-02-11T17:56:34.118Z,13.73
2023-02-11T17:59:22.403Z,13.71
2023-02-11T18:02:05.087Z,13.68
2023-02-11T18:04:56.542Z,13.69
2023-02-11T18:07:39.129Z,13.62
2023-02-11T18:10:21.361Z,13.55
2023-02-11T18:13:10.115Z,13.69
2023-02-11T18:15:58.364Z,13.87
2023-02-11T18:18:41.111Z,13.62
2023-02-11T18:21:30.259Z,13.41
2023-02-11T18:24:13.500Z,13.42
2023-02-11T18:27:01.473Z,13.40
2023-02-11T18:29:44.040Z,13.38
2023-02-11T18:32:39.917Z,13.57
2023-02-11T18:35:29.086Z,13.61
2023-02-11T18:38:11.272Z,13.59
2023-02-11T18:41:00.050Z,13.67
2023-02-11T18:43:44.060Z,13.42
2023-02-11T18:46:32.976Z,13.17
2023-02-11T18:49:15.618Z,13.10
2023-02-11T18:52:06.068Z,13.04
2023-02-11T18:54:48.516Z,12.98
2023-02-11T18:57:38.041Z,13.10
2023-02-11T19:00:21.412Z,13.13
2023-02-11T19:03:11.106Z,13.40
2023-02-11T19:05:56.329Z,13.24
2023-02-11T19:08:45.072Z,13.56
2023-02-11T19:11:46.003Z,13.32
2023-02-11T19:14:38.988Z,13.36
2023-02-11T19:17:21.356Z,13.55
2023-02-11T19:20:09.995Z,13.46
2023-02-11T19:22:52.405Z,13.60
2023-02-11T19:25:40.998Z,13.64
2023-02-11T19:28:23.404Z,13.38
2023-02-11T19:31:17.533Z,13.26
2023-02-11T19:34:05.424Z,13.25
2023-02-11T19:36:49.016Z,13.23
2023-02-11T19:39:37.362Z,13.11
2023-02-11T19:42:20.076Z,13.11
2023-02-11T19:45:11.021Z,13.11
2023-02-11T19:47:54.050Z,13.09
2023-02-11T19:50:43.437Z,13.10
2023-02-11T19:53:25.096Z,12.93
2023-02-11T19:56:15.459Z,12.87
2023-02-11T19:58:58.067Z,12.75
2023-02-11T20:01:40.323Z,12.59
2023-02-11T20:04:32.096Z,12.50
2023-02-11T20:07:20.282Z,12.53
2023-02-11T20:10:03.076Z,12.64
2023-02-11T20:12:51.338Z,12.55
2023-02-11T20:15:34.090Z,12.66
2023-02-11T20:18:22.322Z,12.70
2023-02-11T20:21:04.056Z,12.60
2023-02-11T20:23:54.340Z,12.60
2023-02-11T20:26:41.021Z,12.42
2023-02-11T20:29:32.212Z,12.24
2023-02-11T20:32:16.419Z,12.17
2023-02-11T20:35:04.304Z,12.18
2023-02-11T20:37:47.295Z,12.21
2023-02-11T20:40:35.326Z,12.14
2023-02-11T20:43:18.035Z,12.25
2023-02-11T20:46:16.102Z,12.36
2023-02-11T20:48:59.409Z,12.35
2023-02-11T20:51:48.003Z,12.50
2023-02-11T20:54:37.949Z,12.48
2023-02-11T20:57:27.054Z,12.52
2023-02-11T21:00:10.744Z,12.63
2023-02-11T21:03:03.034Z,12.55
2023-02-11T21:05:45.262Z,12.59
2023-02-11T21:08:34.088Z,12.49
2023-02-11T21:11:22.990Z,12.22
2023-02-11T21:14:12.017Z,11.95
2023-02-11T21:16:55.307Z,11.80
2023-02-11T21:19:44.092Z,11.87
2023-02-11T21:22:26.298Z,11.98
2023-02-11T21:25:16.064Z,11.87
2023-02-11T21:27:58.446Z,11.88
2023-02-11T21:30:48.028Z,11.65
2023-02-11T21:33:31.352Z,11.49
2023-02-11T21:36:19.958Z,11.52
2023-02-11T21:39:02.899Z,11.77
2023-02-11T21:41:51.995Z,11.62
2023-02-11T21:44:34.259Z,11.73
2023-02-11T21:47:23.004Z,11.87
2023-02-11T21:50:05.233Z,11.78
2023-02-11T21:52:54.099Z,11.88
2023-02-11T21:55:36.308Z,11.76
2023-02-11T21:58:24.957Z,11.50
2023-02-11T22:01:14.054Z,11.34
2023-02-11T22:03:56.326Z,11.51
2023-02-11T22:06:48.036Z,11.68
2023-02-11T22:09:37.121Z,11.42
2023-02-11T22:12:19.262Z,11.47
2023-02-11T22:15:07.999Z,11.40
2023-02-11T22:17:50.234Z,11.51
2023-02-11T22:20:39.077Z,11.66
2023-02-11T22:23:21.345Z,11.47
2023-02-11T22:26:15.981Z,11.47
2023-02-11T22:28:59.309Z,11.57
2023-02-11T22:31:48.035Z,11.62
2023-02-11T22:34:42.815Z,11.36
2023-02-11T22:37:31.984Z,11.13
2023-02-11T22:40:15.285Z,11.16
2023-02-11T22:43:04.057Z,11.56
2023-02-11T22:45:46.411Z,11.67
2023-02-11T22:48:34.938Z,11.56
2023-02-11T22:51:26.976Z,11.28
2023-02-11T22:54:19.917Z,11.06
2023-02-11T22:57:09.862Z,11.01
2023-02-11T22:59:58.931Z,11.22
2023-02-11T23:02:41.227Z,11.31
2023-02-11T23:05:31.993Z,11.40
2023-02-11T23:08:19.214Z,11.33
2023-02-11T23:11:19.908Z,11.29
2023-02-11T23:14:09.975Z,11.44
2023-02-11T23:16:59.182Z,11.23
2023-02-11T23:19:41.227Z,11.28
2023-02-11T23:22:29.978Z,11.44
2023-02-11T23:25:19.003Z,11.46
2023-02-11T23:28:07.962Z,11.40
2023-02-11T23:30:50.307Z,11.40
2023-02-11T23:33:38.972Z,11.28
2023-02-11T23:36:29.092Z,11.21
2023-02-11T23:39:21.299Z,11.07
2023-02-11T23:42:06.998Z,11.01
2023-02-11T23:44:55.876Z,11.05
2023-02-11T23:47:44.909Z,10.98
2023-02-11T23:50:33.912Z,10.86
2023-02-11T23:53:16.267Z,10.92
2023-02-11T23:56:05.004Z,11.13
2023-02-11T23:58:53.963Z,11.15
